Terminal Aerodrome Forecast
Issued by NWS Omaha/Valley, NE

Home | Current Version | Previous Version | Text Only | Print | Product List | Glossary On
Versions: 1 2 3 4 5 6 7 8 9 10 11 12 13 14 15 16 17 18 19 20 21 22 23 24 25 26 27 28 29 30
000
FTUS43 KOAX 010346 AAB
TAFOMA
TAF AMD
KOMA 010346Z 0104/0124 10008KT P6SM SCT050 BKN100
      TEMPO 0105/0109 -SHRA BKN060
     FM011000 10005KT P6SM SCT050 SCT250
      TEMPO 0110/0113 5SM BR
     FM011500 08005KT P6SM SCT050
     FM011900 06006KT P6SM BKN050=

USA.gov is the U.S. government's official web portal to all federal, state and local government web resources and services.